Time;durP1;ratioP1;P1;durP2;ratioP2;P2;SDS_P1;SDS_P2;PMS_P1;PMS_P2;Temp;Humidity;BMP_temperature;BMP_pressure;BME280_temperature;BME280_humidity;BME280_pressure;Samples;Min_cycle;Max_cycle;Signal;HPM_P1;HPM_P2
2022/06/18 00:01:13;;;;;;;5.70;4.97;;;;;;;;;;758764;183;919815;-69
2022/06/18 00:03:40;;;;;;;5.93;4.83;;;;;;;;;;758672;184;919261;-68
2022/06/18 00:06:06;;;;;;;8.10;4.60;;;;;;;;;;756149;183;931668;-69
2022/06/18 00:08:32;;;;;;;4.97;4.40;;;;;;;;;;759355;184;919202;-69
2022/06/18 00:13:39;;;;;;;5.40;4.17;;;;;;;;;;758537;181;919302;-69
2022/06/18 00:15:58;;;;;;;6.20;4.37;;;;;;;;;;766172;182;918883;-69
2022/06/18 00:18:24;;;;;;;4.97;4.10;;;;;;;;;;760652;182;920218;-69
2022/06/18 00:20:50;;;;;;;5.90;4.90;;;;;;;;;;763034;180;921208;-70
2022/06/18 00:23:16;;;;;;;7.40;5.00;;;;;;;;;;763684;181;920404;-69
2022/06/18 00:25:41;;;;;;;9.10;4.93;;;;;;;;;;778535;180;918889;-69
2022/06/18 00:28:07;;;;;;;7.97;4.73;;;;;;;;;;760395;180;919115;-69
2022/06/18 00:30:33;;;;;;;6.80;5.03;;;;;;;;;;766279;181;919703;-69
2022/06/18 00:32:59;;;;;;;6.73;4.00;;;;;;;;;;762872;183;918285;-69
2022/06/18 00:35:25;;;;;;;6.63;4.93;;;;;;;;;;771919;180;914469;-71
2022/06/18 00:37:51;;;;;;;11.13;5.87;;;;;;;;;;769020;180;921050;-70
2022/06/18 00:40:19;;;;;;;7.23;4.53;;;;;;;;;;769497;180;919108;-69
2022/06/18 00:42:44;;;;;;;5.50;4.47;;;;;;;;;;759835;183;919789;-70
2022/06/18 00:45:10;;;;;;;7.57;4.60;;;;;;;;;;765710;180;919351;-70
2022/06/18 00:47:37;;;;;;;4.73;4.03;;;;;;;;;;766183;181;918319;-69
2022/06/18 00:50:05;;;;;;;5.77;4.27;;;;;;;;;;769536;182;919094;-70
2022/06/18 00:52:32;;;;;;;5.10;3.70;;;;;;;;;;766632;180;919482;-70
2022/06/18 00:54:58;;;;;;;7.57;4.17;;;;;;;;;;769048;180;918303;-70
2022/06/18 00:57:28;;;;;;;6.90;4.70;;;;;;;;;;767279;181;919073;-70
2022/06/18 00:59:51;;;;;;;5.73;4.40;;;;;;;;;;763348;183;919787;-70
2022/06/18 01:02:18;;;;;;;6.47;4.68;;;;;;;;;;755947;183;919423;-71
2022/06/18 01:04:44;;;;;;;6.53;4.13;;;;;;;;;;761149;183;919283;-71
2022/06/18 01:07:21;;;;;;;5.00;3.50;;;;;;;;;;766928;181;918041;-70
2022/06/18 01:09:47;;;;;;;4.70;3.95;;;;;;;;;;757793;183;918774;-71
2022/06/18 01:12:13;;;;;;;6.10;3.90;;;;;;;;;;759732;183;917530;-70
2022/06/18 01:14:38;;;;;;;5.22;4.70;;;;;;;;;;763473;183;918250;-71
2022/06/18 01:17:06;;;;;;;5.20;4.67;;;;;;;;;;763747;183;919495;-71
2022/06/18 01:19:30;;;;;;;8.70;4.50;;;;;;;;;;758876;184;917924;-71
2022/06/18 01:22:01;;;;;;;5.63;4.53;;;;;;;;;;765157;181;920824;-71
2022/06/18 01:24:32;;;;;;;9.10;4.27;;;;;;;;;;765399;182;921274;-72
2022/06/18 01:26:57;;;;;;;4.20;3.80;;;;;;;;;;764260;183;917808;-71
2022/06/18 01:29:23;;;;;;;7.10;3.90;;;;;;;;;;761411;181;918917;-71
2022/06/18 01:31:49;;;;;;;5.87;4.28;;;;;;;;;;770746;179;937568;-72
2022/06/18 01:34:15;;;;;;;4.73;3.77;;;;;;;;;;765820;180;919369;-72
2022/06/18 01:36:41;;;;;;;6.50;4.43;;;;;;;;;;753571;181;920239;-71
2022/06/18 01:39:07;;;;;;;6.93;4.63;;;;;;;;;;762270;181;915186;-71
2022/06/18 01:44:06;;;;;;;7.90;5.03;;;;;;;;;;769165;183;916284;-71
2022/06/18 01:46:32;;;;;;;7.37;4.70;;;;;;;;;;764316;183;918991;-71
2022/06/18 01:48:58;;;;;;;5.53;4.20;;;;;;;;;;765466;180;918126;-71
2022/06/18 01:51:23;;;;;;;7.70;5.40;;;;;;;;;;765017;180;917586;-71
2022/06/18 01:53:49;;;;;;;4.78;4.22;;;;;;;;;;760653;183;919114;-73
2022/06/18 01:56:15;;;;;;;10.95;5.72;;;;;;;;;;761276;181;923149;-71
2022/06/18 01:58:42;;;;;;;5.17;4.67;;;;;;;;;;761163;184;920468;-71
2022/06/18 02:01:08;;;;;;;17.93;5.27;;;;;;;;;;756493;183;916324;-72
2022/06/18 02:03:34;;;;;;;9.20;5.50;;;;;;;;;;760483;183;919714;-71
2022/06/18 02:06:00;;;;;;;8.25;5.43;;;;;;;;;;761908;183;915732;-70
2022/06/18 02:08:25;;;;;;;8.50;5.70;;;;;;;;;;769476;180;916383;-70
2022/06/18 02:10:53;;;;;;;14.27;6.80;;;;;;;;;;754996;181;916019;-71
2022/06/18 02:13:19;;;;;;;8.20;5.33;;;;;;;;;;760588;183;914721;-71
2022/06/18 02:15:45;;;;;;;8.50;6.03;;;;;;;;;;767623;183;914770;-71
2022/06/18 02:18:11;;;;;;;7.47;6.20;;;;;;;;;;757141;183;914434;-71
2022/06/18 02:20:37;;;;;;;11.93;5.40;;;;;;;;;;761355;181;922256;-71
2022/06/18 02:23:02;;;;;;;10.97;5.77;;;;;;;;;;764977;180;916701;-72
2022/06/18 02:25:28;;;;;;;8.90;6.40;;;;;;;;;;752003;184;917007;-71
2022/06/18 02:27:56;;;;;;;14.13;7.70;;;;;;;;;;762190;181;919516;-72
2022/06/18 02:30:21;;;;;;;7.17;5.73;;;;;;;;;;769718;181;917373;-70
2022/06/18 02:32:47;;;;;;;8.30;6.00;;;;;;;;;;776346;179;919259;-72
2022/06/18 02:35:13;;;;;;;12.37;7.77;;;;;;;;;;764544;181;919333;-72
2022/06/18 02:37:38;;;;;;;11.33;6.47;;;;;;;;;;758024;182;918947;-71
2022/06/18 02:40:05;;;;;;;9.43;6.23;;;;;;;;;;776398;180;912446;-71
2022/06/18 02:42:31;;;;;;;8.80;6.15;;;;;;;;;;757554;183;915090;-72
2022/06/18 02:44:57;;;;;;;9.03;6.30;;;;;;;;;;756591;183;919224;-71
2022/06/18 02:47:23;;;;;;;9.27;7.00;;;;;;;;;;769238;180;918837;-71
2022/06/18 02:49:48;;;;;;;10.60;6.80;;;;;;;;;;764351;180;918638;-71
2022/06/18 02:52:14;;;;;;;11.90;7.00;;;;;;;;;;762442;183;918464;-71
2022/06/18 02:54:40;;;;;;;8.13;6.43;;;;;;;;;;758330;180;919547;-70
2022/06/18 02:57:06;;;;;;;9.50;6.80;;;;;;;;;;763123;183;920006;-71
2022/06/18 02:59:32;;;;;;;11.40;6.47;;;;;;;;;;759047;183;919980;-71
2022/06/18 03:01:58;;;;;;;10.47;6.30;;;;;;;;;;757969;183;919124;-72
2022/06/18 03:04:24;;;;;;;10.00;6.00;;;;;;;;;;771537;180;957573;-71
2022/06/18 03:06:49;;;;;;;10.20;6.47;;;;;;;;;;763292;181;921279;-71
2022/06/18 03:09:15;;;;;;;15.77;7.47;;;;;;;;;;759949;183;918903;-72
2022/06/18 03:14:13;;;;;;;12.07;7.47;;;;;;;;;;764508;180;919066;-71
2022/06/18 03:16:39;;;;;;;8.67;6.77;;;;;;;;;;753440;180;921864;-71
2022/06/18 03:19:04;;;;;;;8.67;6.63;;;;;;;;;;763540;180;919758;-73
2022/06/18 03:21:45;;;;;;;19.03;7.47;;;;;;;;;;774710;181;919676;-74
2022/06/18 03:24:11;;;;;;;10.83;7.03;;;;;;;;;;766360;183;919300;-74
2022/06/18 03:26:37;;;;;;;9.20;6.40;;;;;;;;;;770339;181;919026;-74
2022/06/18 03:29:03;;;;;;;8.97;7.47;;;;;;;;;;768907;181;919188;-74
2022/06/18 03:31:29;;;;;;;10.00;6.77;;;;;;;;;;773020;181;918502;-74
2022/06/18 03:33:54;;;;;;;8.20;6.70;;;;;;;;;;761028;181;919251;-73
2022/06/18 03:36:20;;;;;;;10.68;7.47;;;;;;;;;;770433;180;919041;-74
2022/06/18 03:38:46;;;;;;;9.10;6.87;;;;;;;;;;769352;181;918783;-75
2022/06/18 03:41:12;;;;;;;12.27;7.17;;;;;;;;;;766229;181;1276425;-72
2022/06/18 03:43:38;;;;;;;10.57;7.80;;;;;;;;;;767964;180;918964;-73
2022/06/18 03:46:05;;;;;;;9.00;6.37;;;;;;;;;;763065;180;915420;-72
2022/06/18 03:48:30;;;;;;;8.63;7.23;;;;;;;;;;769471;180;918877;-72
2022/06/18 03:50:55;;;;;;;15.00;7.20;;;;;;;;;;761795;182;918499;-72
2022/06/18 03:53:21;;;;;;;11.57;7.70;;;;;;;;;;761724;182;921100;-72
2022/06/18 03:55:47;;;;;;;13.60;7.03;;;;;;;;;;766784;184;919342;-72
2022/06/18 03:58:13;;;;;;;10.53;8.10;;;;;;;;;;753379;183;945936;-72
2022/06/18 04:00:39;;;;;;;11.18;7.43;;;;;;;;;;759122;184;918181;-72
2022/06/18 04:03:05;;;;;;;10.83;8.10;;;;;;;;;;762288;183;918177;-72
2022/06/18 04:05:30;;;;;;;16.37;8.97;;;;;;;;;;761699;182;918119;-72
2022/06/18 04:07:56;;;;;;;17.23;9.27;;;;;;;;;;764993;180;910853;-72
2022/06/18 04:10:23;;;;;;;12.82;9.60;;;;;;;;;;770469;181;918095;-71
2022/06/18 04:12:49;;;;;;;17.50;9.40;;;;;;;;;;758907;180;915688;-72
2022/06/18 04:15:15;;;;;;;14.23;9.70;;;;;;;;;;759696;181;920983;-72
2022/06/18 04:17:40;;;;;;;20.13;11.57;;;;;;;;;;765482;180;919552;-72
2022/06/18 04:20:07;;;;;;;14.63;11.33;;;;;;;;;;772807;180;918595;-72
2022/06/18 04:22:33;;;;;;;17.63;11.70;;;;;;;;;;764625;181;920478;-71
2022/06/18 04:24:59;;;;;;;14.80;11.73;;;;;;;;;;764983;180;920848;-73
2022/06/18 04:27:25;;;;;;;15.68;12.27;;;;;;;;;;771655;180;914698;-71
2022/06/18 04:29:51;;;;;;;16.97;12.53;;;;;;;;;;765473;180;919543;-72
2022/06/18 04:32:16;;;;;;;17.87;14.20;;;;;;;;;;761317;183;919425;-71
2022/06/18 04:34:42;;;;;;;17.37;13.17;;;;;;;;;;772810;181;918737;-71
2022/06/18 04:37:08;;;;;;;20.50;14.00;;;;;;;;;;770356;181;919347;-71
2022/06/18 04:39:34;;;;;;;18.63;14.50;;;;;;;;;;770486;181;918814;-71
2022/06/18 04:42:00;;;;;;;21.30;14.10;;;;;;;;;;772410;181;618913;-71
2022/06/18 04:44:25;;;;;;;21.73;14.20;;;;;;;;;;770387;180;630199;-70
2022/06/18 04:46:51;;;;;;;16.57;14.13;;;;;;;;;;760778;183;631385;-70
2022/06/18 04:49:17;;;;;;;19.00;15.07;;;;;;;;;;763603;183;632231;-71
2022/06/18 04:51:43;;;;;;;18.30;15.53;;;;;;;;;;770629;183;614616;-71
2022/06/18 04:54:09;;;;;;;18.27;14.30;;;;;;;;;;770555;180;917471;-72
2022/06/18 04:56:35;;;;;;;13.40;11.33;;;;;;;;;;768516;181;921355;-72
2022/06/18 04:59:01;;;;;;;13.80;11.60;;;;;;;;;;764993;182;919168;-72
2022/06/18 05:01:27;;;;;;;14.47;12.50;;;;;;;;;;760090;182;919124;-73
2022/06/18 05:03:53;;;;;;;18.13;11.80;;;;;;;;;;763559;180;918937;-73
2022/06/18 05:06:19;;;;;;;12.40;10.50;;;;;;;;;;758848;183;920032;-74
2022/06/18 05:08:45;;;;;;;14.70;11.27;;;;;;;;;;766679;183;919362;-76
2022/06/18 05:11:11;;;;;;;13.33;9.87;;;;;;;;;;761912;181;922626;-73
2022/06/18 05:13:37;;;;;;;17.73;8.37;;;;;;;;;;767475;180;912668;-75
2022/06/18 05:16:02;;;;;;;14.63;8.60;;;;;;;;;;773600;181;918869;-75
2022/06/18 05:18:28;;;;;;;11.53;6.77;;;;;;;;;;766404;180;919991;-74
2022/06/18 05:20:54;;;;;;;11.40;7.90;;;;;;;;;;759119;183;919380;-74
2022/06/18 05:23:20;;;;;;;12.37;7.37;;;;;;;;;;767385;183;918868;-75
2022/06/18 05:25:46;;;;;;;7.83;7.03;;;;;;;;;;761608;183;918448;-74
2022/06/18 05:28:12;;;;;;;10.27;7.73;;;;;;;;;;760322;182;919457;-75
2022/06/18 05:30:37;;;;;;;8.93;7.68;;;;;;;;;;759966;183;919355;-75
2022/06/18 05:33:03;;;;;;;7.97;6.63;;;;;;;;;;771349;180;918348;-75
2022/06/18 05:35:29;;;;;;;10.13;7.30;;;;;;;;;;762072;183;918624;-76
2022/06/18 05:37:55;;;;;;;9.13;6.20;;;;;;;;;;761792;180;919720;-74
2022/06/18 05:40:21;;;;;;;6.73;5.10;;;;;;;;;;765564;183;918491;-74
2022/06/18 05:42:47;;;;;;;5.93;5.33;;;;;;;;;;761727;183;931903;-75
2022/06/18 05:45:13;;;;;;;9.13;5.40;;;;;;;;;;760645;182;924556;-75
2022/06/18 05:47:38;;;;;;;8.10;5.93;;;;;;;;;;763040;183;919519;-75
2022/06/18 05:50:06;;;;;;;5.30;4.80;;;;;;;;;;761296;183;918757;-76
2022/06/18 05:52:31;;;;;;;10.15;5.25;;;;;;;;;;761111;183;919603;-75
2022/06/18 05:54:57;;;;;;;7.80;5.68;;;;;;;;;;771671;180;919615;-74
2022/06/18 05:57:23;;;;;;;7.23;3.77;;;;;;;;;;759846;183;879258;-76
2022/06/18 05:59:49;;;;;;;8.87;3.93;;;;;;;;;;757500;183;919045;-74
2022/06/18 06:02:15;;;;;;;9.03;4.20;;;;;;;;;;758772;183;919562;-75
2022/06/18 06:04:42;;;;;;;5.43;4.00;;;;;;;;;;765194;183;939551;-75
2022/06/18 06:07:06;;;;;;;4.20;3.23;;;;;;;;;;765051;180;917046;-74
2022/06/18 06:12:05;;;;;;;4.68;3.40;;;;;;;;;;771416;180;915794;-74
2022/06/18 06:14:30;;;;;;;4.80;3.20;;;;;;;;;;765906;182;919904;-76
2022/06/18 06:16:57;;;;;;;9.80;3.43;;;;;;;;;;762436;180;705994;-75
2022/06/18 06:19:22;;;;;;;7.60;2.70;;;;;;;;;;761015;183;916508;-76
2022/06/18 06:21:48;;;;;;;7.27;2.80;;;;;;;;;;765997;183;915640;-75
2022/06/18 06:24:14;;;;;;;7.53;3.03;;;;;;;;;;767675;180;922555;-74
2022/06/18 06:26:40;;;;;;;4.23;2.83;;;;;;;;;;763253;180;918913;-75
2022/06/18 06:29:06;;;;;;;14.23;2.70;;;;;;;;;;772301;180;911593;-75
2022/06/18 06:31:31;;;;;;;4.80;2.53;;;;;;;;;;767380;180;919291;-75
2022/06/18 06:33:57;;;;;;;7.45;2.22;;;;;;;;;;756527;180;1019226;-75
2022/06/18 06:36:23;;;;;;;16.23;3.67;;;;;;;;;;770964;180;654737;-75
2022/06/18 06:38:49;;;;;;;5.60;2.70;;;;;;;;;;768566;180;1195378;-78
2022/06/18 06:41:16;;;;;;;4.27;2.77;;;;;;;;;;769229;180;719204;-75
2022/06/18 06:43:42;;;;;;;4.40;2.70;;;;;;;;;;764762;181;898499;-74
2022/06/18 06:46:10;;;;;;;7.00;3.43;;;;;;;;;;771749;181;646638;-75
2022/06/18 06:48:36;;;;;;;4.60;3.10;;;;;;;;;;764682;183;635132;-76
2022/06/18 06:51:01;;;;;;;5.70;3.30;;;;;;;;;;767183;181;619418;-76
2022/06/18 06:53:27;;;;;;;4.93;3.00;;;;;;;;;;768523;183;615414;-74
2022/06/18 06:58:25;;;;;;;4.60;2.90;;;;;;;;;;763745;183;628984;-74
2022/06/18 07:00:51;;;;;;;5.63;3.00;;;;;;;;;;758787;183;918390;-72
2022/06/18 07:03:17;;;;;;;6.37;3.17;;;;;;;;;;763584;183;917709;-75
2022/06/18 07:05:44;;;;;;;5.70;3.63;;;;;;;;;;761563;184;918435;-72
2022/06/18 07:08:09;;;;;;;4.97;3.57;;;;;;;;;;758270;184;625522;-74
2022/06/18 07:10:35;;;;;;;5.53;3.70;;;;;;;;;;775175;180;636373;-74
2022/06/18 07:13:01;;;;;;;9.73;4.03;;;;;;;;;;773826;181;668787;-73
2022/06/18 07:15:26;;;;;;;5.68;3.25;;;;;;;;;;761388;183;1798323;-72
2022/06/18 07:17:53;;;;;;;5.43;2.80;;;;;;;;;;768718;181;908983;-72
2022/06/18 07:20:19;;;;;;;3.30;2.80;;;;;;;;;;764965;182;920505;-74
2022/06/18 07:22:44;;;;;;;5.63;3.00;;;;;;;;;;763055;182;919493;-72
2022/06/18 07:25:10;;;;;;;4.20;2.60;;;;;;;;;;766430;182;897821;-73
2022/06/18 07:27:36;;;;;;;6.47;3.10;;;;;;;;;;768736;182;615915;-77
2022/06/18 07:30:03;;;;;;;2.80;2.33;;;;;;;;;;765707;183;736683;-76
2022/06/18 07:32:28;;;;;;;6.33;2.47;;;;;;;;;;761505;180;919000;-72
2022/06/18 07:34:55;;;;;;;7.33;2.30;;;;;;;;;;764031;181;1010689;-73
2022/06/18 07:37:20;;;;;;;5.30;2.73;;;;;;;;;;775685;181;918087;-72
2022/06/18 07:39:46;;;;;;;6.90;2.57;;;;;;;;;;762079;183;919075;-74
2022/06/18 07:42:12;;;;;;;3.43;2.00;;;;;;;;;;767532;183;1021065;-73
2022/06/18 07:44:38;;;;;;;4.33;2.50;;;;;;;;;;758857;183;815709;-72
2022/06/18 07:47:04;;;;;;;3.97;2.27;;;;;;;;;;763315;183;942680;-73
2022/06/18 07:49:30;;;;;;;3.45;2.03;;;;;;;;;;766078;180;917629;-71
2022/06/18 07:51:56;;;;;;;3.53;2.23;;;;;;;;;;765482;183;618628;-72
2022/06/18 07:54:21;;;;;;;4.63;2.07;;;;;;;;;;763731;183;678279;-72
2022/06/18 07:56:47;;;;;;;4.25;2.00;;;;;;;;;;772291;180;879672;-72
2022/06/18 07:59:13;;;;;;;4.83;2.20;;;;;;;;;;764061;181;920000;-72
2022/06/18 08:01:39;;;;;;;2.43;1.70;;;;;;;;;;769287;180;921013;-72
2022/06/18 08:04:05;;;;;;;6.03;2.17;;;;;;;;;;772998;180;624243;-72
2022/06/18 08:06:31;;;;;;;4.20;1.80;;;;;;;;;;763562;180;635066;-73
2022/06/18 08:08:56;;;;;;;2.70;1.77;;;;;;;;;;759643;183;818883;-73
2022/06/18 08:11:23;;;;;;;3.60;2.07;;;;;;;;;;763989;181;637393;-73
2022/06/18 08:13:49;;;;;;;6.03;2.10;;;;;;;;;;770474;181;634646;-73
2022/06/18 08:16:14;;;;;;;9.70;2.93;;;;;;;;;;766542;183;618135;-73
2022/06/18 08:18:40;;;;;;;3.67;2.20;;;;;;;;;;763790;181;621462;-72
2022/06/18 08:21:06;;;;;;;3.67;2.20;;;;;;;;;;767457;181;625371;-71
2022/06/18 08:23:32;;;;;;;6.50;2.33;;;;;;;;;;766168;180;623557;-73
2022/06/18 08:25:57;;;;;;;3.70;2.37;;;;;;;;;;770465;180;627839;-72
2022/06/18 08:28:23;;;;;;;3.17;1.60;;;;;;;;;;769960;180;628528;-71
2022/06/18 08:30:49;;;;;;;3.40;2.10;;;;;;;;;;777484;180;636221;-73
2022/06/18 08:33:15;;;;;;;3.77;2.10;;;;;;;;;;766606;183;918923;-74
2022/06/18 08:35:41;;;;;;;3.93;2.23;;;;;;;;;;763835;183;902118;-73
2022/06/18 08:38:07;;;;;;;9.33;2.00;;;;;;;;;;762449;182;914512;-71
2022/06/18 08:40:34;;;;;;;3.67;2.03;;;;;;;;;;762634;183;622878;-71
2022/06/18 08:43:02;;;;;;;5.00;2.08;;;;;;;;;;757857;183;919129;-70
2022/06/18 08:45:34;;;;;;;10.63;2.37;;;;;;;;;;764042;183;915875;-71
2022/06/18 08:48:02;;;;;;;3.57;2.20;;;;;;;;;;765889;182;917897;-72
2022/06/18 08:50:40;;;;;;;2.90;2.07;;;;;;;;;;766722;184;640215;-73
2022/06/18 08:53:12;;;;;;;4.23;1.87;;;;;;;;;;772763;180;619719;-73
2022/06/18 08:55:38;;;;;;;3.30;2.30;;;;;;;;;;757968;181;621087;-72
2022/06/18 08:58:15;;;;;;;5.43;2.37;;;;;;;;;;773860;180;640733;-72
2022/06/18 09:00:46;;;;;;;3.17;2.00;;;;;;;;;;761845;181;993848;-72
2022/06/18 09:03:12;;;;;;;6.10;2.20;;;;;;;;;;776807;180;918848;-70
2022/06/18 09:05:42;;;;;;;5.03;1.97;;;;;;;;;;768548;180;656885;-72
2022/06/18 09:08:11;;;;;;;4.00;2.20;;;;;;;;;;774392;181;615319;-72
2022/06/18 09:10:52;;;;;;;6.10;2.40;;;;;;;;;;769294;181;912691;-73
2022/06/18 09:13:18;;;;;;;2.90;2.00;;;;;;;;;;770357;181;919402;-71
2022/06/18 09:15:44;;;;;;;3.73;2.37;;;;;;;;;;774169;181;918806;-71
2022/06/18 09:18:11;;;;;;;3.23;2.50;;;;;;;;;;769303;181;892245;-71
2022/06/18 09:20:38;;;;;;;6.83;2.53;;;;;;;;;;767437;184;619110;-71
2022/06/18 09:23:03;;;;;;;5.37;2.10;;;;;;;;;;774756;181;919015;-71
2022/06/18 09:25:30;;;;;;;5.40;2.97;;;;;;;;;;770206;181;919032;-70
2022/06/18 09:27:55;;;;;;;5.80;2.23;;;;;;;;;;769642;181;625529;-72
2022/06/18 09:30:21;;;;;;;3.30;2.10;;;;;;;;;;766836;181;636411;-73
2022/06/18 09:32:47;;;;;;;6.40;2.80;;;;;;;;;;766009;183;614917;-70
2022/06/18 09:35:15;;;;;;;2.87;2.23;;;;;;;;;;761589;181;918464;-72
2022/06/18 09:37:56;;;;;;;3.40;2.17;;;;;;;;;;752980;183;2249988;-73
2022/06/18 09:40:22;;;;;;;5.43;2.57;;;;;;;;;;759729;184;613556;-72
2022/06/18 09:42:48;;;;;;;2.97;1.83;;;;;;;;;;766075;182;613364;-68
2022/06/18 09:45:15;;;;;;;2.70;2.03;;;;;;;;;;759941;182;916365;-71
2022/06/18 09:47:42;;;;;;;5.30;2.10;;;;;;;;;;765467;180;630933;-70
2022/06/18 09:50:12;;;;;;;10.00;2.37;;;;;;;;;;775059;180;658115;-71
2022/06/18 09:52:39;;;;;;;5.30;1.90;;;;;;;;;;771505;183;627268;-70
2022/06/18 09:55:04;;;;;;;3.47;2.10;;;;;;;;;;764930;183;637064;-72
2022/06/18 09:57:30;;;;;;;3.20;2.60;;;;;;;;;;769695;182;631460;-72
2022/06/18 10:00:02;;;;;;;3.33;2.50;;;;;;;;;;766739;183;629538;-70
2022/06/18 10:02:28;;;;;;;3.47;2.30;;;;;;;;;;771746;180;633949;-71
2022/06/18 10:07:25;;;;;;;8.07;2.90;;;;;;;;;;763229;183;616737;-70
2022/06/18 10:09:51;;;;;;;6.13;2.20;;;;;;;;;;769012;183;918356;-72
2022/06/18 10:12:19;;;;;;;2.97;1.80;;;;;;;;;;771011;181;919107;-70
2022/06/18 10:14:45;;;;;;;4.40;2.53;;;;;;;;;;763768;181;628600;-71
2022/06/18 10:17:12;;;;;;;3.53;2.30;;;;;;;;;;769414;180;919211;-72
2022/06/18 10:19:41;;;;;;;4.80;2.20;;;;;;;;;;757165;183;919694;-69
2022/06/18 10:22:17;;;;;;;8.53;3.53;;;;;;;;;;761930;181;918209;-69
2022/06/18 10:24:43;;;;;;;2.80;2.17;;;;;;;;;;771474;181;919232;-70
2022/06/18 10:27:12;;;;;;;4.87;2.47;;;;;;;;;;765472;183;912398;-70
2022/06/18 10:29:39;;;;;;;3.43;2.33;;;;;;;;;;756242;183;919850;-74
2022/06/18 10:32:07;;;;;;;5.10;2.47;;;;;;;;;;757699;181;915473;-69
2022/06/18 10:34:37;;;;;;;4.07;2.53;;;;;;;;;;772138;180;627195;-70
2022/06/18 10:37:05;;;;;;;4.10;2.20;;;;;;;;;;774810;180;632267;-70
2022/06/18 10:39:46;;;;;;;3.53;2.50;;;;;;;;;;770674;181;624459;-70
2022/06/18 10:42:14;;;;;;;3.70;2.50;;;;;;;;;;763354;181;671300;-70
2022/06/18 10:44:57;;;;;;;4.60;2.43;;;;;;;;;;763220;180;2116763;-70
2022/06/18 10:47:23;;;;;;;7.93;2.83;;;;;;;;;;766720;181;662445;-74
2022/06/18 10:49:49;;;;;;;4.23;2.30;;;;;;;;;;770136;180;639112;-69
2022/06/18 10:52:16;;;;;;;3.47;2.40;;;;;;;;;;763802;181;635919;-70
2022/06/18 10:54:41;;;;;;;3.70;2.30;;;;;;;;;;770269;180;635156;-69
2022/06/18 10:57:07;;;;;;;4.17;2.23;;;;;;;;;;770847;180;638693;-70
2022/06/18 10:59:35;;;;;;;3.67;2.00;;;;;;;;;;762195;180;622018;-73
2022/06/18 11:02:01;;;;;;;5.10;2.50;;;;;;;;;;766353;180;628628;-69
2022/06/18 11:04:28;;;;;;;4.30;2.23;;;;;;;;;;770033;180;642048;-71
2022/06/18 11:06:53;;;;;;;5.83;2.40;;;;;;;;;;765018;183;639177;-69
2022/06/18 11:09:19;;;;;;;6.00;2.30;;;;;;;;;;768908;183;617152;-69
2022/06/18 11:11:45;;;;;;;3.87;2.20;;;;;;;;;;763627;183;637748;-70
2022/06/18 11:14:14;;;;;;;6.90;2.40;;;;;;;;;;762068;183;630071;-69
2022/06/18 11:16:40;;;;;;;5.20;2.30;;;;;;;;;;764723;182;627876;-69
2022/06/18 11:19:06;;;;;;;3.20;2.17;;;;;;;;;;764298;183;644052;-70
2022/06/18 11:21:33;;;;;;;7.20;2.77;;;;;;;;;;763470;180;2036855;-70
2022/06/18 11:23:59;;;;;;;3.57;2.13;;;;;;;;;;763865;181;915908;-69
2022/06/18 11:26:25;;;;;;;2.80;2.20;;;;;;;;;;781536;180;650630;-69
2022/06/18 11:28:50;;;;;;;4.60;2.30;;;;;;;;;;772746;180;628554;-70
2022/06/18 11:31:35;;;;;;;4.47;2.50;;;;;;;;;;753740;184;623641;-70
2022/06/18 11:34:01;;;;;;;4.63;2.43;;;;;;;;;;768444;180;625329;-71
2022/06/18 11:36:31;;;;;;;3.90;2.60;;;;;;;;;;768372;183;618003;-70
2022/06/18 11:38:57;;;;;;;4.77;2.10;;;;;;;;;;774132;181;623544;-69
2022/06/18 11:41:23;;;;;;;6.03;2.10;;;;;;;;;;763607;181;619939;-69
2022/06/18 11:43:48;;;;;;;4.57;2.50;;;;;;;;;;771334;180;640262;-69
2022/06/18 11:46:15;;;;;;;7.40;2.27;;;;;;;;;;766243;183;621369;-68
2022/06/18 11:48:42;;;;;;;3.53;2.10;;;;;;;;;;764202;183;615584;-71
2022/06/18 11:51:07;;;;;;;5.23;2.37;;;;;;;;;;764396;183;629574;-69
2022/06/18 11:53:34;;;;;;;3.87;2.27;;;;;;;;;;769885;183;640669;-68
2022/06/18 11:56:00;;;;;;;3.27;2.53;;;;;;;;;;765855;180;619660;-70
2022/06/18 11:58:27;;;;;;;5.40;2.17;;;;;;;;;;764014;183;647944;-71
2022/06/18 12:01:03;;;;;;;4.43;2.13;;;;;;;;;;768145;181;629564;-69
2022/06/18 12:03:38;;;;;;;5.50;2.50;;;;;;;;;;762907;183;627536;-71
2022/06/18 12:06:18;;;;;;;5.03;2.30;;;;;;;;;;770872;181;616799;-70
2022/06/18 12:08:44;;;;;;;6.00;2.40;;;;;;;;;;771171;182;617187;-71
2022/06/18 12:11:11;;;;;;;3.97;2.70;;;;;;;;;;767940;181;623926;-69
2022/06/18 12:13:40;;;;;;;5.10;2.10;;;;;;;;;;769301;180;632205;-69
2022/06/18 12:16:24;;;;;;;8.53;2.40;;;;;;;;;;776383;180;628209;-70
2022/06/18 12:18:50;;;;;;;3.07;1.90;;;;;;;;;;767210;183;627211;-69
2022/06/18 12:21:22;;;;;;;5.03;2.07;;;;;;;;;;769886;180;633264;-69
2022/06/18 12:23:50;;;;;;;2.80;2.13;;;;;;;;;;770805;181;621473;-71
2022/06/18 12:26:20;;;;;;;3.37;2.00;;;;;;;;;;762156;183;622523;-70
2022/06/18 12:28:51;;;;;;;3.23;1.90;;;;;;;;;;766587;183;689587;-68
2022/06/18 12:31:17;;;;;;;4.43;2.13;;;;;;;;;;767290;183;635129;-70
2022/06/18 12:33:43;;;;;;;7.70;2.20;;;;;;;;;;761580;180;919279;-72
2022/06/18 12:36:09;;;;;;;2.87;1.80;;;;;;;;;;764330;183;633247;-70
2022/06/18 12:38:44;;;;;;;3.13;1.97;;;;;;;;;;766886;183;919446;-69
2022/06/18 12:41:12;;;;;;;7.20;2.10;;;;;;;;;;762225;181;627108;-70
2022/06/18 12:43:55;;;;;;;4.13;2.03;;;;;;;;;;763229;183;625163;-68
2022/06/18 12:46:22;;;;;;;12.97;3.27;;;;;;;;;;767019;183;622146;-71
2022/06/18 12:48:50;;;;;;;5.93;2.30;;;;;;;;;;765003;183;630214;-70
2022/06/18 12:51:16;;;;;;;2.67;1.77;;;;;;;;;;767713;183;629473;-73
2022/06/18 12:53:43;;;;;;;3.67;1.63;;;;;;;;;;769305;180;626299;-69
2022/06/18 12:56:09;;;;;;;6.13;2.47;;;;;;;;;;772205;180;630396;-70
2022/06/18 12:58:35;;;;;;;4.32;2.30;;;;;;;;;;770399;181;630321;-68
2022/06/18 13:01:03;;;;;;;5.93;2.40;;;;;;;;;;757116;183;643460;-72
2022/06/18 13:03:34;;;;;;;3.23;2.00;;;;;;;;;;760099;183;1447923;-69
2022/06/18 13:06:17;;;;;;;3.90;2.17;;;;;;;;;;765608;181;918541;-70
2022/06/18 13:08:46;;;;;;;12.67;2.07;;;;;;;;;;763268;181;919545;-69
2022/06/18 13:11:14;;;;;;;3.12;1.90;;;;;;;;;;767027;181;918595;-70
2022/06/18 13:13:50;;;;;;;2.50;1.80;;;;;;;;;;776784;180;751778;-72
2022/06/18 13:16:20;;;;;;;3.57;1.90;;;;;;;;;;762894;181;621076;-70
2022/06/18 13:18:46;;;;;;;3.37;1.90;;;;;;;;;;764523;182;626740;-71
2022/06/18 13:21:12;;;;;;;3.73;1.93;;;;;;;;;;764092;182;620084;-68
2022/06/18 13:28:42;;;;;;;5.10;2.00;;;;;;;;;;771518;181;643038;-70
2022/06/18 13:31:20;;;;;;;3.43;2.03;;;;;;;;;;772499;181;623560;-68
2022/06/18 13:33:49;;;;;;;4.63;2.10;;;;;;;;;;772713;181;625535;-71
2022/06/18 13:36:25;;;;;;;3.87;2.23;;;;;;;;;;778091;180;622451;-69
2022/06/18 13:38:51;;;;;;;6.70;2.17;;;;;;;;;;763616;182;633069;-70
2022/06/18 13:41:27;;;;;;;2.63;1.90;;;;;;;;;;762881;181;729955;-71
2022/06/18 13:43:51;;;;;;;5.27;1.93;;;;;;;;;;759697;184;636380;-69
2022/06/18 13:46:18;;;;;;;2.90;1.90;;;;;;;;;;767456;183;620340;-71
2022/06/18 13:48:45;;;;;;;5.20;2.10;;;;;;;;;;765666;183;623352;-69
2022/06/18 13:51:11;;;;;;;2.67;1.80;;;;;;;;;;760322;183;640317;-72
2022/06/18 13:53:37;;;;;;;6.60;2.30;;;;;;;;;;761605;183;626919;-71
2022/06/18 13:56:03;;;;;;;3.97;2.47;;;;;;;;;;769855;183;615972;-72
2022/06/18 13:58:29;;;;;;;5.23;2.30;;;;;;;;;;763154;183;638085;-71
2022/06/18 14:01:03;;;;;;;3.80;2.23;;;;;;;;;;763295;183;918532;-72
2022/06/18 14:03:29;;;;;;;4.10;1.90;;;;;;;;;;761722;183;918520;-69
2022/06/18 14:06:05;;;;;;;8.83;2.30;;;;;;;;;;769904;180;917976;-68
2022/06/18 14:08:31;;;;;;;4.77;2.00;;;;;;;;;;762231;183;917732;-70
2022/06/18 14:10:58;;;;;;;2.60;1.77;;;;;;;;;;762082;183;626034;-70
2022/06/18 14:13:25;;;;;;;3.70;2.20;;;;;;;;;;760868;183;917827;-71
2022/06/18 14:15:52;;;;;;;5.67;2.50;;;;;;;;;;768963;183;634337;-72
2022/06/18 14:18:18;;;;;;;2.80;2.17;;;;;;;;;;762038;183;632933;-71
2022/06/18 14:20:43;;;;;;;4.57;2.30;;;;;;;;;;767211;179;625271;-71
2022/06/18 14:23:12;;;;;;;3.43;1.97;;;;;;;;;;773293;181;620403;-72
2022/06/18 14:25:41;;;;;;;6.00;2.37;;;;;;;;;;774606;181;918565;-71
2022/06/18 14:28:07;;;;;;;4.72;2.50;;;;;;;;;;770291;180;1021393;-71
2022/06/18 14:30:34;;;;;;;3.13;2.10;;;;;;;;;;770573;179;919241;-72
2022/06/18 14:33:01;;;;;;;4.07;1.97;;;;;;;;;;771835;181;615244;-72
2022/06/18 14:35:33;;;;;;;3.27;2.07;;;;;;;;;;768358;182;614592;-72
2022/06/18 14:37:59;;;;;;;3.60;1.77;;;;;;;;;;767314;182;817876;-71
2022/06/18 14:40:25;;;;;;;4.03;2.70;;;;;;;;;;762296;183;920139;-71
2022/06/18 14:42:57;;;;;;;5.30;2.40;;;;;;;;;;765354;183;919973;-71
2022/06/18 14:45:26;;;;;;;6.00;2.67;;;;;;;;;;766576;183;634265;-71